Time;durP1;ratioP1;P1;durP2;ratioP2;P2;SDS_P1;SDS_P2;PMS_P1;PMS_P2;Temp;Humidity;BMP_temperature;BMP_pressure;BME280_temperature;BME280_humidity;BME280_pressure;Samples;Min_cycle;Max_cycle;Signal;HPM_P1;HPM_P2
2021/03/05 00:01:11;;;;;;;45.67;21.87;;;;;;;1.95;77.02;100635.83;1698453;84;21215;-74
2021/03/05 00:03:37;;;;;;;45.12;22.98;;;;;;;1.89;77.07;100636.27;1697172;84;21684;-74
2021/03/05 00:06:04;;;;;;;39.85;20.85;;;;;;;1.84;77.10;100638.38;1698960;84;21154;-74
2021/03/05 00:08:30;;;;;;;43.20;19.37;;;;;;;1.79;77.14;100636.56;1699041;84;21223;-74
2021/03/05 00:10:57;;;;;;;51.55;22.87;;;;;;;1.69;77.18;100634.22;1698962;84;21198;-74
2021/03/05 00:13:24;;;;;;;38.38;18.30;;;;;;;1.61;77.24;100632.59;1698824;84;21216;-74
2021/03/05 00:15:51;;;;;;;43.30;20.43;;;;;;;1.58;77.28;100642.01;1698803;84;21174;-74
2021/03/05 00:18:17;;;;;;;35.75;18.15;;;;;;;1.51;77.33;100646.35;1698709;84;21175;-74
2021/03/05 00:20:47;;;;;;;38.23;18.05;;;;;;;1.46;77.40;100646.31;1698858;84;21218;-74
2021/03/05 00:23:13;;;;;;;37.50;19.70;;;;;;;1.46;77.45;100651.57;1698012;84;21198;-74
2021/03/05 00:25:40;;;;;;;39.00;20.90;;;;;;;1.44;77.52;100646.91;1678667;84;21198;-74
2021/03/05 00:28:07;;;;;;;50.00;23.35;;;;;;;1.44;77.58;100647.72;1704079;84;21196;-74
2021/03/05 00:30:34;;;;;;;45.73;21.57;;;;;;;1.42;77.63;100647.00;1702688;84;21150;-74
2021/03/05 00:33:04;;;;;;;42.67;21.60;;;;;;;1.43;77.67;100649.16;1702706;84;21600;-74
2021/03/05 00:35:31;;;;;;;43.40;22.67;;;;;;;1.43;77.70;100652.63;1702596;84;21159;-74
2021/03/05 00:37:57;;;;;;;48.25;23.12;;;;;;;1.40;77.75;100653.31;1702811;84;21214;-74
2021/03/05 00:40:24;;;;;;;41.08;22.05;;;;;;;1.38;77.81;100656.03;1702450;84;21135;-74
2021/03/05 00:42:50;;;;;;;41.80;21.07;;;;;;;1.34;77.83;100659.81;1702716;84;21151;-74
2021/03/05 00:45:20;;;;;;;39.50;19.00;;;;;;;1.32;77.86;100663.03;1702274;84;21191;-74
2021/03/05 00:47:46;;;;;;;36.40;17.67;;;;;;;1.29;77.96;100667.66;1702839;84;21623;-73
2021/03/05 00:50:14;;;;;;;34.58;17.52;;;;;;;1.25;77.95;100661.77;1702836;84;21605;-73
2021/03/05 00:52:41;;;;;;;36.65;18.60;;;;;;;1.25;78.00;100670.96;1702533;84;21174;-74
2021/03/05 00:55:08;;;;;;;33.73;16.97;;;;;;;1.19;78.07;100667.45;1702577;84;21202;-74
2021/03/05 00:57:35;;;;;;;30.45;16.70;;;;;;;1.15;78.13;100676.47;1702582;84;21179;-74
2021/03/05 01:00:07;;;;;;;30.95;17.75;;;;;;;1.12;78.19;100681.94;1702770;84;22062;-74
2021/03/05 01:02:33;;;;;;;42.13;24.77;;;;;;;1.09;78.27;100687.36;1702655;84;22056;-73
2021/03/05 01:05:00;;;;;;;40.12;20.08;;;;;;;1.04;78.31;100684.22;1702513;84;21190;-74
2021/03/05 01:07:26;;;;;;;57.88;24.50;;;;;;;0.97;78.36;100686.89;1702800;84;21198;-73
2021/03/05 01:09:53;;;;;;;32.23;16.48;;;;;;;0.91;78.41;100689.92;1702398;84;21926;-74
2021/03/05 01:12:20;;;;;;;35.38;17.30;;;;;;;0.84;78.45;100688.65;1702700;84;21198;-74
2021/03/05 01:14:47;;;;;;;66.70;30.68;;;;;;;0.82;78.49;100691.83;1703888;84;21202;-74
2021/03/05 01:17:14;;;;;;;27.95;16.25;;;;;;;0.79;78.54;100699.91;1704587;84;21190;-74
2021/03/05 01:19:40;;;;;;;34.30;18.35;;;;;;;0.78;78.60;100694.28;1704781;84;21179;-74
2021/03/05 01:22:07;;;;;;;33.90;16.10;;;;;;;0.82;78.63;100699.70;1704569;83;21199;-74
2021/03/05 01:24:33;;;;;;;43.15;19.48;;;;;;;0.80;78.69;100701.13;1690957;84;21172;-74
2021/03/05 01:26:59;;;;;;;64.77;25.12;;;;;;;0.76;78.74;100702.73;1686627;85;21605;-74
2021/03/05 01:29:26;;;;;;;68.02;25.88;;;;;;;0.72;78.88;100709.13;1686674;85;21216;-74
2021/03/05 01:31:52;;;;;;;39.73;16.55;;;;;;;0.62;78.94;100713.29;1686669;85;21472;-74
2021/03/05 01:34:20;;;;;;;32.23;13.22;;;;;;;0.50;79.03;100720.16;1686479;85;37808;-74
2021/03/05 01:36:47;;;;;;;36.58;13.25;;;;;;;0.35;79.12;100716.72;1686627;85;21192;-74
2021/03/05 01:39:13;;;;;;;32.38;12.23;;;;;;;0.26;79.21;100717.32;1686656;85;21621;-74
2021/03/05 01:41:39;;;;;;;59.98;22.10;;;;;;;0.19;79.30;100714.71;1686760;85;21175;-74
2021/03/05 01:44:07;;;;;;;14.73;6.78;;;;;;;0.14;79.35;100722.01;1686692;85;21613;-74
2021/03/05 01:46:34;;;;;;;32.33;13.30;;;;;;;0.12;79.41;100719.12;1686764;85;22295;-74
2021/03/05 01:49:00;;;;;;;36.40;15.03;;;;;;;0.05;79.49;100729.15;1686603;85;21216;-74
2021/03/05 01:51:29;;;;;;;17.10;6.50;;;;;;;0.02;79.54;100731.97;1686864;85;22166;-74
2021/03/05 01:53:56;;;;;;;19.00;7.58;;;;;;;0.00;79.60;100731.23;1686731;85;21223;-74
2021/03/05 01:56:35;;;;;;;13.45;5.55;;;;;;;-0.01;79.67;100729.54;1686252;85;21649;-74
2021/03/05 01:59:04;;;;;;;17.82;7.08;;;;;;;-0.03;79.70;100732.70;1686884;85;21233;-74
2021/03/05 02:01:31;;;;;;;14.50;5.80;;;;;;;-0.04;79.75;100742.84;1686770;85;21188;-74
2021/03/05 02:03:57;;;;;;;15.43;6.05;;;;;;;-0.03;79.79;100739.25;1679732;85;21217;-73
2021/03/05 02:06:23;;;;;;;14.23;6.30;;;;;;;-0.03;79.84;100745.34;1672770;85;21179;-74
2021/03/05 02:08:50;;;;;;;13.50;7.30;;;;;;;-0.03;79.87;100746.66;1672798;85;21164;-74
2021/03/05 02:11:20;;;;;;;24.27;9.83;;;;;;;-0.02;79.92;100748.81;1672934;85;21176;-74
2021/03/05 02:13:46;;;;;;;20.37;7.90;;;;;;;-0.01;79.95;100754.44;1672734;85;21679;-74
2021/03/05 02:16:18;;;;;;;16.07;7.28;;;;;;;0.00;79.97;100748.27;1672896;85;21203;-74
2021/03/05 02:18:53;;;;;;;17.23;7.65;;;;;;;0.04;79.99;100746.27;1671887;85;21664;-74
2021/03/05 02:21:40;;;;;;;19.82;10.35;;;;;;;0.06;80.03;100752.28;1672828;85;22215;-74
2021/03/05 02:24:33;;;;;;;42.00;19.65;;;;;;;0.04;80.04;100751.05;1681784;84;21241;-74
2021/03/05 02:27:38;;;;;;;26.20;12.13;;;;;;;0.09;80.09;100756.86;1701872;84;21183;-74
2021/03/05 02:30:35;;;;;;;20.45;10.43;;;;;;;0.10;80.11;100755.09;1702570;83;21227;-74
2021/03/05 02:33:10;;;;;;;21.27;11.60;;;;;;;0.12;80.12;100750.58;1701843;84;21203;-73
2021/03/05 02:35:37;;;;;;;24.32;11.48;;;;;;;0.15;80.16;100753.01;1701300;84;21198;-73
2021/03/05 02:38:04;;;;;;;24.25;12.68;;;;;;;0.14;80.18;100758.72;1701970;84;21147;-73
2021/03/05 02:40:37;;;;;;;22.10;11.90;;;;;;;0.13;80.19;100763.61;1701825;84;21139;-72
2021/03/05 02:43:06;;;;;;;18.40;10.70;;;;;;;0.12;80.19;100765.84;1701979;84;21968;-72
2021/03/05 02:45:35;;;;;;;15.72;9.63;;;;;;;0.13;80.23;100763.61;1701913;84;21630;-72
2021/03/05 02:48:08;;;;;;;19.37;10.28;;;;;;;0.14;80.23;100770.52;1702057;84;21179;-72
2021/03/05 02:50:39;;;;;;;19.12;10.58;;;;;;;0.14;80.25;100770.52;1702068;84;21207;-73
2021/03/05 02:53:10;;;;;;;19.65;10.88;;;;;;;0.15;80.28;100777.45;1701879;84;21179;-73
2021/03/05 02:55:38;;;;;;;19.80;11.18;;;;;;;0.15;80.28;100778.77;1702508;84;21307;-73
2021/03/05 02:58:04;;;;;;;20.00;10.93;;;;;;;0.14;80.31;100778.38;1701852;84;21192;-73
2021/03/05 03:00:30;;;;;;;24.72;10.93;;;;;;;0.13;80.34;100775.41;1701837;84;21619;-72
2021/03/05 03:02:57;;;;;;;18.87;9.88;;;;;;;0.12;80.37;100782.89;1701785;84;21197;-73
2021/03/05 03:05:28;;;;;;;17.07;10.30;;;;;;;0.13;80.37;100792.45;1697475;84;21187;-73
2021/03/05 03:07:54;;;;;;;20.82;11.65;;;;;;;0.12;80.41;100792.06;1679564;85;21372;-73
2021/03/05 03:10:21;;;;;;;19.70;11.15;;;;;;;0.12;80.41;100796.00;1679594;85;21183;-72
2021/03/05 03:12:48;;;;;;;18.57;10.82;;;;;;;0.13;80.46;100785.05;1679507;85;21627;-73
2021/03/05 03:15:15;;;;;;;18.23;10.58;;;;;;;0.13;80.46;100785.89;1657303;86;21191;-73
2021/03/05 03:17:43;;;;;;;14.65;9.93;;;;;;;0.14;80.49;100796.73;1654397;85;21227;-72
2021/03/05 03:20:13;;;;;;;16.37;9.80;;;;;;;0.12;80.53;100796.00;1679631;85;21217;-73
2021/03/05 03:22:40;;;;;;;19.45;11.00;;;;;;;0.12;80.55;100797.31;1682601;85;21606;-73
2021/03/05 03:25:06;;;;;;;18.48;10.50;;;;;;;0.12;80.57;100797.31;1695106;84;21173;-73
2021/03/05 03:27:33;;;;;;;20.55;11.57;;;;;;;0.11;80.63;100800.86;1700367;84;21173;-73
2021/03/05 03:29:59;;;;;;;29.02;11.05;;;;;;;0.11;80.65;100807.41;1700507;84;21605;-73
2021/03/05 03:32:26;;;;;;;21.07;10.90;;;;;;;0.11;80.70;100808.73;1706404;84;21210;-73
2021/03/05 03:34:52;;;;;;;19.32;10.88;;;;;;;0.11;80.72;100810.03;1707844;84;21218;-73
2021/03/05 03:37:18;;;;;;;16.37;9.40;;;;;;;0.10;80.74;100805.75;1707589;84;21162;-73
2021/03/05 03:39:45;;;;;;;16.97;9.95;;;;;;;0.12;80.79;100814.36;1707804;84;21178;-73
2021/03/05 03:42:11;;;;;;;19.07;9.08;;;;;;;0.11;80.81;100812.66;1707839;84;21174;-73
2021/03/05 03:44:38;;;;;;;17.12;9.95;;;;;;;0.13;80.83;100825.69;1707649;84;21596;-73
2021/03/05 03:47:04;;;;;;;21.07;8.70;;;;;;;0.13;80.83;100827.84;1707901;84;21235;-73
2021/03/05 03:49:50;;;;;;;19.73;9.73;;;;;;;0.14;80.86;100829.52;1707792;84;21186;-73
2021/03/05 03:52:36;;;;;;;18.00;9.28;;;;;;;0.15;80.89;100829.89;1707713;84;21204;-73
2021/03/05 03:55:04;;;;;;;19.42;9.55;;;;;;;0.15;80.92;100846.09;1707791;84;21564;-73
2021/03/05 03:57:30;;;;;;;15.70;8.38;;;;;;;0.15;80.93;100850.87;1707753;84;21325;-72
2021/03/05 03:59:57;;;;;;;15.88;8.38;;;;;;;0.13;80.97;100846.20;1660597;84;21678;-72
2021/03/05 04:02:28;;;;;;;21.10;9.40;;;;;;;0.15;81.00;100853.50;1707762;84;21143;-72
2021/03/05 04:04:55;;;;;;;18.25;8.75;;;;;;;0.15;81.00;100859.20;1683266;84;21694;-73
2021/03/05 04:07:22;;;;;;;16.93;9.28;;;;;;;0.15;81.02;100867.92;1707661;84;21154;-73
2021/03/05 04:09:48;;;;;;;17.07;9.05;;;;;;;0.12;81.03;100866.80;1707296;84;21926;-72
2021/03/05 04:12:15;;;;;;;19.77;9.10;;;;;;;0.12;81.04;100875.13;1710313;82;21181;-72
2021/03/05 04:14:41;;;;;;;15.20;8.23;;;;;;;0.11;81.05;100879.52;1678853;84;21192;-73
2021/03/05 04:17:07;;;;;;;24.27;9.95;;;;;;;0.10;81.07;100883.56;1695695;84;21272;-72
2021/03/05 04:19:34;;;;;;;19.25;10.98;;;;;;;0.08;81.09;100890.20;1659493;84;21192;-72
2021/03/05 04:22:00;;;;;;;22.00;11.00;;;;;;;0.09;81.09;100897.59;1706776;84;21215;-72
2021/03/05 04:24:26;;;;;;;20.10;10.58;;;;;;;0.09;81.10;100899.76;1697428;84;21214;-72
2021/03/05 04:26:53;;;;;;;20.88;11.45;;;;;;;0.10;81.11;100906.70;1675142;85;21191;-72
2021/03/05 04:29:19;;;;;;;17.52;10.32;;;;;;;0.08;81.12;100903.30;1675127;85;21617;-72
2021/03/05 04:31:45;;;;;;;16.25;8.93;;;;;;;0.09;81.13;100906.31;1675138;85;21211;-73
2021/03/05 04:34:12;;;;;;;20.05;9.93;;;;;;;0.08;81.15;100909.86;1648919;85;22198;-72
2021/03/05 04:36:38;;;;;;;17.45;9.50;;;;;;;0.05;81.16;100914.44;1655511;85;21159;-72
2021/03/05 04:39:05;;;;;;;18.32;10.00;;;;;;;0.04;81.17;100913.59;1675088;85;21238;-72
2021/03/05 04:41:32;;;;;;;21.35;9.53;;;;;;;0.03;81.19;100926.34;1671850;85;21205;-72
2021/03/05 04:43:58;;;;;;;20.25;10.78;;;;;;;0.01;81.22;100924.27;1677777;85;21204;-72
2021/03/05 04:46:26;;;;;;;16.55;8.33;;;;;;;0.00;81.22;100926.53;1677791;85;21313;-72
2021/03/05 04:48:52;;;;;;;17.17;8.50;;;;;;;-0.02;81.26;100932.31;1677646;85;21590;-72
2021/03/05 04:51:19;;;;;;;16.17;8.80;;;;;;;-0.07;81.26;100937.00;1677812;84;21165;-72
2021/03/05 04:53:45;;;;;;;20.20;8.90;;;;;;;-0.13;81.28;100930.78;1677477;84;21161;-72
2021/03/05 04:56:11;;;;;;;18.30;8.30;;;;;;;-0.14;81.29;100933.05;1677828;85;21204;-72
2021/03/05 04:58:38;;;;;;;15.13;7.20;;;;;;;-0.18;81.29;100940.70;1677808;84;21177;-72
2021/03/05 05:01:04;;;;;;;14.50;7.05;;;;;;;-0.21;81.31;100943.50;1677699;84;21201;-72
2021/03/05 05:03:31;;;;;;;13.98;7.12;;;;;;;-0.28;81.30;100942.16;1677575;85;21181;-72
2021/03/05 05:05:57;;;;;;;12.85;6.33;;;;;;;-0.35;81.30;100951.31;1677822;85;21192;-72
2021/03/05 05:08:24;;;;;;;10.53;6.45;;;;;;;-0.42;81.32;100941.61;1681094;84;21160;-72
2021/03/05 05:10:50;;;;;;;13.58;6.60;;;;;;;-0.51;81.35;100940.84;1697269;84;21354;-72
2021/03/05 05:13:17;;;;;;;11.65;6.10;;;;;;;-0.57;81.35;100942.04;1697166;84;21735;-72
2021/03/05 05:15:43;;;;;;;14.93;6.40;;;;;;;-0.61;81.35;100950.14;1696730;84;21136;-72
2021/03/05 05:18:09;;;;;;;10.98;5.53;;;;;;;-0.68;81.36;100953.58;1697062;84;21195;-72
2021/03/05 05:20:36;;;;;;;14.10;5.30;;;;;;;-0.74;81.35;100959.13;1688910;84;21174;-71
2021/03/05 05:23:02;;;;;;;13.00;6.45;;;;;;;-0.79;81.37;100961.17;1690421;83;21621;-72
2021/03/05 05:25:28;;;;;;;15.08;6.22;;;;;;;-0.84;81.36;100959.25;1682636;84;21742;-72
2021/03/05 05:27:55;;;;;;;12.75;6.12;;;;;;;-0.88;81.40;100964.77;1707281;82;21170;-72
2021/03/05 05:30:23;;;;;;;16.87;6.55;;;;;;;-0.93;81.38;100963.70;1697221;84;21762;-72
2021/03/05 05:32:49;;;;;;;16.95;7.08;;;;;;;-0.96;81.38;100970.41;1678036;85;21223;-72
2021/03/05 05:35:15;;;;;;;13.00;5.35;;;;;;;-0.99;81.37;100974.51;1678095;85;21978;-73
2021/03/05 05:37:41;;;;;;;15.08;5.78;;;;;;;-1.04;81.39;100968.66;1680569;85;21216;-72
2021/03/05 05:40:09;;;;;;;11.50;5.15;;;;;;;-1.07;81.39;100974.06;1682356;85;21183;-72
2021/03/05 05:42:35;;;;;;;36.15;14.43;;;;;;;-1.10;81.40;100979.47;1702485;84;21194;-72
2021/03/05 05:45:03;;;;;;;14.95;6.20;;;;;;;-1.13;81.40;100980.48;1702626;83;21619;-72
2021/03/05 05:47:32;;;;;;;24.25;10.20;;;;;;;-1.14;81.39;100977.94;1702459;84;21922;-73
2021/03/05 05:50:04;;;;;;;13.72;6.35;;;;;;;-1.14;81.39;100983.17;1702449;83;21182;-73
2021/03/05 05:52:31;;;;;;;19.02;7.28;;;;;;;-1.17;81.38;100989.42;1702465;83;21218;-73
2021/03/05 05:54:58;;;;;;;16.70;6.35;;;;;;;-1.19;81.36;100990.41;1702222;83;21203;-73
2021/03/05 05:57:24;;;;;;;19.95;7.78;;;;;;;-1.19;81.37;100994.33;1702579;84;21151;-73
2021/03/05 05:59:51;;;;;;;20.32;7.03;;;;;;;-1.19;81.37;100998.25;1702532;83;21214;-73
2021/03/05 06:02:17;;;;;;;16.52;7.40;;;;;;;-1.20;81.36;101004.44;1702539;83;21203;-73
2021/03/05 06:04:43;;;;;;;25.05;7.47;;;;;;;-1.21;81.34;101005.34;1701020;84;21162;-73
2021/03/05 06:07:11;;;;;;;17.35;7.50;;;;;;;-1.18;81.34;101014.34;1695189;84;21209;-73
2021/03/05 06:09:37;;;;;;;22.35;8.08;;;;;;;-1.13;81.32;101018.89;1695339;84;21178;-73
2021/03/05 06:12:13;;;;;;;37.90;15.40;;;;;;;-1.10;81.30;101027.88;1695631;84;21220;-73
2021/03/05 06:14:40;;;;;;;16.00;7.67;;;;;;;-1.08;81.27;101037.79;1702605;84;21612;-73
2021/03/05 06:17:07;;;;;;;15.10;6.08;;;;;;;-1.08;81.25;101033.86;1698197;83;21181;-73
2021/03/05 06:19:34;;;;;;;21.62;8.10;;;;;;;-1.07;81.23;101035.56;1695386;84;21157;-73
2021/03/05 06:22:00;;;;;;;25.05;6.53;;;;;;;-1.06;81.18;101051.66;1695226;84;21650;-73
2021/03/05 06:24:28;;;;;;;22.02;7.80;;;;;;;-1.06;81.14;101051.66;1695322;84;21279;-73
2021/03/05 06:26:59;;;;;;;13.75;4.62;;;;;;;-1.04;81.12;101057.19;1703820;84;21233;-73
2021/03/05 06:29:31;;;;;;;17.85;6.03;;;;;;;-0.95;81.04;101057.15;1703486;84;21165;-73
2021/03/05 06:32:02;;;;;;;13.05;5.72;;;;;;;-0.80;80.95;101068.13;1702310;84;21204;-73
2021/03/05 06:34:29;;;;;;;17.40;8.03;;;;;;;-0.75;80.90;101064.81;1703432;84;21638;-73
2021/03/05 06:37:05;;;;;;;16.00;5.65;;;;;;;-0.70;80.87;101075.88;1703339;84;21226;-73
2021/03/05 06:39:33;;;;;;;15.25;6.47;;;;;;;-0.75;80.89;101077.91;1703591;84;21192;-73
2021/03/05 06:42:13;;;;;;;17.73;7.00;;;;;;;-0.70;80.86;101075.02;1703502;84;21205;-74
2021/03/05 06:44:42;;;;;;;14.20;6.67;;;;;;;-0.47;80.75;101080.34;1703741;84;28348;-75
2021/03/05 06:47:16;;;;;;;15.43;7.65;;;;;;;-0.19;80.63;101085.77;1703745;84;21172;-72
2021/03/05 06:49:45;;;;;;;20.43;9.28;;;;;;;0.01;80.59;101089.42;1702981;84;21969;-72
2021/03/05 06:52:11;;;;;;;28.30;9.03;;;;;;;0.21;80.56;101097.00;1703539;84;21831;-72
2021/03/05 06:54:43;;;;;;;20.05;8.00;;;;;;;0.33;80.52;101102.88;1703529;84;21213;-72
2021/03/05 06:57:11;;;;;;;21.10;9.33;;;;;;;0.43;80.48;101110.59;1703485;84;21492;-72
2021/03/05 06:59:43;;;;;;;24.47;8.30;;;;;;;0.41;80.43;101106.38;1703636;84;21176;-72
2021/03/05 07:02:14;;;;;;;21.20;6.78;;;;;;;0.37;80.43;101110.95;1703644;84;21234;-72
2021/03/05 07:04:50;;;;;;;16.45;6.20;;;;;;;0.40;80.35;101116.02;1703464;84;21192;-72
2021/03/05 07:07:19;;;;;;;24.63;9.05;;;;;;;0.53;80.29;101120.58;1706363;84;21170;-72
2021/03/05 07:09:53;;;;;;;25.35;10.03;;;;;;;0.72;80.18;101134.31;1708047;84;21153;-72
2021/03/05 07:12:25;;;;;;;24.07;10.40;;;;;;;0.78;80.06;101129.55;1707993;84;21162;-73
2021/03/05 07:15:02;;;;;;;17.00;7.97;;;;;;;0.73;79.98;101136.01;1702141;84;21187;-72
2021/03/05 07:17:29;;;;;;;18.80;7.33;;;;;;;0.82;79.88;101138.94;1699013;84;21175;-72
2021/03/05 07:19:55;;;;;;;23.27;7.65;;;;;;;0.90;79.77;101138.48;1698905;84;21684;-72
2021/03/05 07:22:29;;;;;;;16.70;7.20;;;;;;;0.86;79.67;101142.23;1702788;84;21151;-72
2021/03/05 07:24:56;;;;;;;23.65;9.85;;;;;;;0.89;79.54;101145.98;1708057;84;21165;-72
2021/03/05 07:27:29;;;;;;;13.60;5.95;;;;;;;0.95;79.38;101153.02;1707964;84;21447;-72
2021/03/05 07:29:57;;;;;;;16.15;5.30;;;;;;;1.04;79.30;101149.02;1707425;84;21246;-72
2021/03/05 07:32:36;;;;;;;14.03;5.03;;;;;;;1.12;79.15;101157.30;1707531;84;21150;-72
2021/03/05 07:35:32;;;;;;;10.60;4.40;;;;;;;1.14;79.00;101158.50;1707869;84;21166;-73
2021/03/05 07:38:00;;;;;;;10.88;4.28;;;;;;;1.18;78.92;101158.23;1707583;84;21191;-72
2021/03/05 07:40:28;;;;;;;11.03;5.08;;;;;;;1.27;78.76;101160.30;1708112;84;21286;-72
2021/03/05 07:42:58;;;;;;;17.70;6.35;;;;;;;1.36;78.64;101166.34;1689457;84;21647;-73
2021/03/05 07:45:26;;;;;;;10.98;5.62;;;;;;;1.42;78.52;101171.21;1677993;84;21572;-72
2021/03/05 07:47:53;;;;;;;13.03;5.17;;;;;;;1.36;78.36;101176.00;1677883;84;21147;-72
2021/03/05 07:50:22;;;;;;;16.23;5.47;;;;;;;1.32;78.21;101167.45;1699972;84;21146;-72
2021/03/05 07:52:48;;;;;;;13.10;5.05;;;;;;;1.35;78.06;101183.03;1707793;84;21861;-72
2021/03/05 07:55:15;;;;;;;13.58;5.20;;;;;;;1.28;77.90;101181.70;1707710;84;21212;-72
2021/03/05 07:57:47;;;;;;;14.70;5.78;;;;;;;1.36;77.75;101180.79;1708019;84;21145;-72
2021/03/05 08:00:16;;;;;;;14.87;5.70;;;;;;;1.43;77.62;101192.63;1707267;84;21644;-73
2021/03/05 08:02:57;;;;;;;14.73;5.60;;;;;;;1.45;77.48;101197.30;1708094;84;21623;-73
2021/03/05 08:05:41;;;;;;;13.30;4.65;;;;;;;1.53;77.35;101193.37;1707476;84;22825;-73
2021/03/05 08:08:17;;;;;;;14.68;7.05;;;;;;;1.63;77.20;101193.18;1707916;84;21168;-73
2021/03/05 08:10:50;;;;;;;11.00;5.62;;;;;;;1.62;77.04;101195.45;1706901;84;21694;-73
2021/03/05 08:13:51;;;;;;;13.20;5.30;;;;;;;1.62;76.91;101203.34;1707674;84;21746;-73
2021/03/05 08:16:32;;;;;;;11.00;4.47;;;;;;;1.74;76.81;101196.00;1708004;84;21198;-73
2021/03/05 08:19:12;;;;;;;9.13;4.10;;;;;;;1.89;76.69;101202.95;1707780;84;22147;-73
2021/03/05 08:21:57;;;;;;;15.88;3.60;;;;;;;1.90;76.58;101207.28;1707362;84;21182;-73
2021/03/05 08:24:30;;;;;;;10.78;4.80;;;;;;;1.87;76.44;101200.88;1706491;84;21205;-73
2021/03/05 08:27:16;;;;;;;8.78;3.45;;;;;;;1.86;76.33;101207.95;1699415;84;21227;-73
2021/03/05 08:29:53;;;;;;;10.28;3.90;;;;;;;1.97;76.23;101201.52;1698990;84;21589;-72
2021/03/05 08:32:37;;;;;;;9.95;4.10;;;;;;;1.96;76.03;101201.63;1698915;84;21282;-73
2021/03/05 08:35:08;;;;;;;19.32;8.70;;;;;;;1.95;75.91;101205.20;1698764;84;21138;-73
2021/03/05 08:37:42;;;;;;;33.90;13.48;;;;;;;2.06;75.72;101211.11;1698958;84;21219;-73
2021/03/05 08:40:22;;;;;;;25.40;10.63;;;;;;;2.10;75.57;101212.14;1699472;84;21146;-73
2021/03/05 08:42:57;;;;;;;9.20;3.45;;;;;;;2.14;75.44;101206.22;1699147;84;21136;-73
2021/03/05 08:45:30;;;;;;;9.80;3.67;;;;;;;2.26;75.30;101208.91;1676784;85;21313;-73
2021/03/05 08:48:02;;;;;;;22.70;8.45;;;;;;;2.38;75.11;101215.19;1679369;85;21219;-73
2021/03/05 08:50:31;;;;;;;7.35;3.45;;;;;;;2.42;74.99;101212.27;1679676;85;21192;-73
2021/03/05 08:53:12;;;;;;;37.78;16.73;;;;;;;2.48;74.82;101217.14;1689096;84;21186;-73
2021/03/05 08:55:40;;;;;;;9.25;3.85;;;;;;;2.51;74.68;101224.83;1708109;84;21170;-74
2021/03/05 08:58:07;;;;;;;7.72;2.85;;;;;;;2.48;74.49;101219.77;1707634;84;21277;-74
2021/03/05 09:00:35;;;;;;;7.22;2.80;;;;;;;2.39;74.28;101217.70;1700744;84;21633;-73
2021/03/05 09:03:12;;;;;;;5.95;2.12;;;;;;;2.39;74.10;101235.31;1702645;84;21162;-73
2021/03/05 09:05:47;;;;;;;13.10;5.20;;;;;;;2.41;73.87;101223.73;1679517;85;21178;-73
2021/03/05 09:08:16;;;;;;;5.15;2.40;;;;;;;2.40;73.43;101242.23;1706542;84;21144;-73
2021/03/05 09:10:59;;;;;;;5.30;1.90;;;;;;;2.30;73.22;101231.92;1708137;84;21237;-73
2021/03/05 09:13:32;;;;;;;4.55;2.20;;;;;;;2.24;73.01;101227.06;1708747;83;21172;-73
2021/03/05 09:16:00;;;;;;;5.85;2.05;;;;;;;2.13;72.71;101236.94;1689291;84;21740;-73
2021/03/05 09:18:36;;;;;;;4.30;1.82;;;;;;;2.22;72.51;101244.24;1704923;84;21158;-73
2021/03/05 09:21:07;;;;;;;7.08;2.42;;;;;;;2.32;72.21;101237.45;1704951;84;21529;-73
2021/03/05 09:23:41;;;;;;;7.95;2.17;;;;;;;2.44;71.96;101239.33;1703764;84;21275;-73
2021/03/05 09:26:15;;;;;;;11.30;2.15;;;;;;;2.58;71.80;101232.33;1700264;84;21609;-73
2021/03/05 09:28:52;;;;;;;8.38;2.35;;;;;;;2.80;71.61;101232.64;1700613;84;21201;-73
2021/03/05 09:31:24;;;;;;;9.08;2.83;;;;;;;2.91;71.42;101230.16;1700597;84;21188;-74
2021/03/05 09:33:50;;;;;;;7.70;3.90;;;;;;;3.03;71.11;101232.81;1704263;84;21584;-74
2021/03/05 09:36:18;;;;;;;3.58;1.40;;;;;;;3.11;70.91;101238.89;1705020;84;21223;-73
2021/03/05 09:39:03;;;;;;;3.30;1.70;;;;;;;3.24;70.68;101233.17;1705009;84;21223;-73
2021/03/05 09:41:30;;;;;;;16.48;5.50;;;;;;;3.10;70.38;101242.47;1705162;84;21165;-74
2021/03/05 09:44:02;;;;;;;7.87;2.90;;;;;;;2.93;70.06;101241.42;1704958;84;21667;-73
2021/03/05 09:46:33;;;;;;;44.03;15.38;;;;;;;2.69;69.58;101254.40;1704772;84;21139;-73
2021/03/05 09:49:02;;;;;;;9.25;3.30;;;;;;;2.53;69.26;101257.16;1704904;84;21211;-73
2021/03/05 09:51:37;;;;;;;16.80;5.67;;;;;;;2.50;68.97;101262.62;1680007;84;21235;-73
2021/03/05 09:54:03;;;;;;;14.00;4.28;;;;;;;2.63;68.83;101259.22;1705128;84;21512;-73
2021/03/05 09:56:35;;;;;;;11.03;2.85;;;;;;;2.75;68.71;101258.41;1704954;84;21195;-73
2021/03/05 09:59:02;;;;;;;3.98;1.90;;;;;;;2.82;68.45;101259.70;1704047;84;21588;-73
2021/03/05 10:01:33;;;;;;;4.15;2.00;;;;;;;2.92;68.24;101266.09;1701957;84;22030;-73
2021/03/05 10:04:01;;;;;;;8.28;2.67;;;;;;;2.98;68.03;101280.17;1701421;84;21189;-73
2021/03/05 10:06:28;;;;;;;6.72;2.27;;;;;;;3.13;67.81;101271.25;1689440;84;21659;-73
2021/03/05 10:09:12;;;;;;;8.55;3.83;;;;;;;3.07;67.58;101271.66;1705031;84;21631;-72
2021/03/05 10:11:43;;;;;;;11.80;3.30;;;;;;;2.91;67.37;101280.20;1705032;84;21174;-72
2021/03/05 10:14:19;;;;;;;6.12;2.20;;;;;;;2.72;67.15;101293.70;1704551;84;22129;-73
2021/03/05 10:16:47;;;;;;;8.33;2.85;;;;;;;2.57;66.96;101297.80;1705028;84;21159;-73
2021/03/05 10:19:15;;;;;;;5.28;2.17;;;;;;;2.58;66.75;101293.73;1704643;84;21154;-73
2021/03/05 10:21:45;;;;;;;8.95;2.42;;;;;;;2.75;66.56;101295.28;1678928;84;21166;-73
2021/03/05 10:24:13;;;;;;;8.98;3.37;;;;;;;3.06;66.41;101301.61;1704209;84;21131;-73
2021/03/05 10:27:10;;;;;;;7.65;2.20;;;;;;;3.18;66.28;101302.11;1703046;84;21977;-73
2021/03/05 10:29:10;;;;;;;7.33;2.58;;;;;;;3.37;66.20;101305.23;1698032;84;21179;-73
2021/03/05 10:31:49;;;;;;;3.70;1.50;;;;;;;3.38;65.92;101316.13;1701754;84;21214;-73
2021/03/05 10:34:32;;;;;;;6.00;2.08;;;;;;;3.48;65.72;101319.02;1701968;84;21183;-73
2021/03/05 10:37:00;;;;;;;3.98;1.60;;;;;;;3.38;65.17;101314.81;1701808;84;21619;-73
2021/03/05 10:39:34;;;;;;;5.75;3.12;;;;;;;3.38;64.84;101311.33;1701990;84;22123;-74
2021/03/05 10:42:02;;;;;;;4.72;2.62;;;;;;;3.51;64.50;101320.13;1702004;84;21179;-74
2021/03/05 10:44:30;;;;;;;4.37;2.20;;;;;;;3.50;64.10;101320.60;1715649;82;21163;-73
2021/03/05 10:47:01;;;;;;;10.10;3.58;;;;;;;3.50;63.77;101339.53;1670627;85;21481;-73
2021/03/05 10:49:27;;;;;;;7.33;2.70;;;;;;;3.28;63.42;101331.33;1670455;84;21231;-73
2021/03/05 10:51:54;;;;;;;6.85;2.05;;;;;;;3.15;63.15;101333.94;1670637;85;21225;-74
2021/03/05 10:54:21;;;;;;;4.30;1.57;;;;;;;3.12;62.70;101331.50;1678343;84;21654;-73
2021/03/05 10:56:49;;;;;;;5.33;1.92;;;;;;;3.14;62.17;101334.87;1702008;84;21186;-73
2021/03/05 10:59:17;;;;;;;3.80;1.50;;;;;;;3.23;61.68;101336.92;1702144;84;21194;-73
2021/03/05 11:01:44;;;;;;;3.47;1.80;;;;;;;3.29;61.35;101333.03;1700477;84;21568;-73
2021/03/05 11:04:10;;;;;;;5.05;1.95;;;;;;;3.40;61.16;101330.55;1699392;84;21228;-73
2021/03/05 11:06:36;;;;;;;5.60;2.52;;;;;;;3.66;61.05;101324.36;1697019;84;21193;-73
2021/03/05 11:09:06;;;;;;;3.87;1.67;;;;;;;3.88;60.86;101335.63;1694959;84;21161;-73
2021/03/05 11:11:32;;;;;;;3.83;1.77;;;;;;;3.82;60.58;101332.09;1683023;84;21217;-73
2021/03/05 11:13:58;;;;;;;4.78;2.27;;;;;;;3.65;60.20;101337.67;1672317;85;21145;-73
2021/03/05 11:16:25;;;;;;;5.00;2.17;;;;;;;3.43;59.74;101352.28;1701670;84;21290;-74
2021/03/05 11:18:51;;;;;;;6.58;2.27;;;;;;;3.35;59.50;101345.33;1702077;83;21996;-73
2021/03/05 11:21:17;;;;;;;7.47;2.95;;;;;;;3.37;59.38;101342.14;1702218;84;21195;-73
2021/03/05 11:23:44;;;;;;;8.13;2.10;;;;;;;3.55;59.39;101347.14;1702070;84;21155;-73
2021/03/05 11:26:11;;;;;;;11.03;4.70;;;;;;;3.51;59.28;101352.63;1700960;84;21174;-73
2021/03/05 11:28:39;;;;;;;11.00;4.35;;;;;;;3.50;59.27;101346.97;1666081;85;21253;-73
2021/03/05 11:31:05;;;;;;;8.10;2.90;;;;;;;3.46;59.23;101349.44;1665994;85;21188;-73
2021/03/05 11:33:32;;;;;;;14.75;5.08;;;;;;;3.33;59.13;101348.56;1666084;86;21161;-73